Weather at Fyresdal Airfield

Public forecast

Using degrees Celsius for public forecast. Weather courtesy of forecast.io.

Closest aviation weather report (METAR) to Fyresdal Airfield

Closest report is Notodden Airport, 40.8 nm (75.6 km) ENE. Retrieved 2021/11/30 14:50 UTC (31 minutes ago):

ENNO 301450Z VRB01KT 9999 SCT025 M09/M10 Q0997

Closest aviation forecast (TAF) to Fyresdal Airfield

Forecast is more than 12 hours old.

Closest forecast is Kristiansand Airport, Kjevik, 59.8 nm (110.7 km) S. Retrieved 2016/05/06 12:39 UTC (6 years ago):

TAF TAF ENCN 061100Z 0612/0712 14008KT 9999 FEW040